sensor_id;sensor_type;location;lat;lon;timestamp;P1;durP1;ratioP1;P2;durP2;ratioP2
33593;SDS011;19920;52.242;20.940;2023-07-13T00:02:09;13.98;;;10.85;;
33593;SDS011;19920;52.242;20.940;2023-07-13T00:04:35;12.90;;;10.35;;
33593;SDS011;19920;52.242;20.940;2023-07-13T00:07:01;14.13;;;10.57;;
33593;SDS011;19920;52.242;20.940;2023-07-13T00:09:27;19.15;;;10.73;;
33593;SDS011;19920;52.242;20.940;2023-07-13T00:11:55;13.25;;;10.85;;
33593;SDS011;19920;52.242;20.940;2023-07-13T00:14:22;14.20;;;10.68;;
33593;SDS011;19920;52.242;20.940;2023-07-13T00:16:49;11.93;;;10.43;;
33593;SDS011;19920;52.242;20.940;2023-07-13T00:19:14;14.45;;;11.23;;
33593;SDS011;19920;52.242;20.940;2023-07-13T00:21:40;14.45;;;11.05;;
33593;SDS011;19920;52.242;20.940;2023-07-13T00:24:07;12.73;;;11.23;;
33593;SDS011;19920;52.242;20.940;2023-07-13T00:26:37;17.10;;;11.05;;
33593;SDS011;19920;52.242;20.940;2023-07-13T00:29:03;13.02;;;11.02;;
33593;SDS011;19920;52.242;20.940;2023-07-13T00:31:33;15.30;;;11.48;;
33593;SDS011;19920;52.242;20.940;2023-07-13T00:33:59;12.90;;;11.02;;
33593;SDS011;19920;52.242;20.940;2023-07-13T00:36:25;13.32;;;11.93;;
33593;SDS011;19920;52.242;20.940;2023-07-13T00:38:51;13.02;;;11.65;;
33593;SDS011;19920;52.242;20.940;2023-07-13T00:41:18;17.25;;;11.85;;
33593;SDS011;19920;52.242;20.940;2023-07-13T00:43:44;15.50;;;10.95;;
33593;SDS011;19920;52.242;20.940;2023-07-13T00:46:32;14.13;;;10.70;;
33593;SDS011;19920;52.242;20.940;2023-07-13T00:49:01;15.63;;;11.18;;
33593;SDS011;19920;52.242;20.940;2023-07-13T00:51:32;13.30;;;11.63;;
33593;SDS011;19920;52.242;20.940;2023-07-13T00:54:09;15.75;;;11.48;;
33593;SDS011;19920;52.242;20.940;2023-07-13T00:56:42;12.88;;;11.55;;
33593;SDS011;19920;52.242;20.940;2023-07-13T00:59:10;15.77;;;11.00;;
33593;SDS011;19920;52.242;20.940;2023-07-13T01:01:37;15.05;;;12.50;;
33593;SDS011;19920;52.242;20.940;2023-07-13T01:04:04;15.40;;;12.65;;
33593;SDS011;19920;52.242;20.940;2023-07-13T01:06:32;16.52;;;12.45;;
33593;SDS011;19920;52.242;20.940;2023-07-13T01:09:03;17.80;;;12.70;;
33593;SDS011;19920;52.242;20.940;2023-07-13T01:11:29;17.85;;;12.05;;
33593;SDS011;19920;52.242;20.940;2023-07-13T01:13:55;15.90;;;13.25;;
33593;SDS011;19920;52.242;20.940;2023-07-13T01:16:28;16.33;;;13.63;;
33593;SDS011;19920;52.242;20.940;2023-07-13T01:18:58;16.35;;;12.40;;
33593;SDS011;19920;52.242;20.940;2023-07-13T01:21:27;14.52;;;12.23;;
33593;SDS011;19920;52.242;20.940;2023-07-13T01:23:56;17.90;;;13.23;;
33593;SDS011;19920;52.242;20.940;2023-07-13T01:26:23;15.88;;;12.88;;
33593;SDS011;19920;52.242;20.940;2023-07-13T01:28:48;16.92;;;12.20;;
33593;SDS011;19920;52.242;20.940;2023-07-13T01:31:14;16.17;;;12.60;;
33593;SDS011;19920;52.242;20.940;2023-07-13T01:33:40;16.38;;;12.98;;
33593;SDS011;19920;52.242;20.940;2023-07-13T01:36:06;14.85;;;12.50;;
33593;SDS011;19920;52.242;20.940;2023-07-13T01:38:33;17.45;;;11.98;;
33593;SDS011;19920;52.242;20.940;2023-07-13T01:40:59;19.35;;;12.65;;
33593;SDS011;19920;52.242;20.940;2023-07-13T01:43:25;14.50;;;12.52;;
33593;SDS011;19920;52.242;20.940;2023-07-13T01:45:51;14.63;;;12.10;;
33593;SDS011;19920;52.242;20.940;2023-07-13T01:48:16;15.52;;;12.63;;
33593;SDS011;19920;52.242;20.940;2023-07-13T01:50:42;15.88;;;12.88;;
33593;SDS011;19920;52.242;20.940;2023-07-13T01:53:08;16.30;;;12.50;;
33593;SDS011;19920;52.242;20.940;2023-07-13T01:55:34;16.42;;;13.95;;
33593;SDS011;19920;52.242;20.940;2023-07-13T01:58:00;15.02;;;12.68;;
33593;SDS011;19920;52.242;20.940;2023-07-13T02:00:26;15.70;;;13.18;;
33593;SDS011;19920;52.242;20.940;2023-07-13T02:02:52;16.88;;;13.23;;
33593;SDS011;19920;52.242;20.940;2023-07-13T02:05:17;17.63;;;13.63;;
33593;SDS011;19920;52.242;20.940;2023-07-13T02:07:43;22.65;;;14.13;;
33593;SDS011;19920;52.242;20.940;2023-07-13T02:10:09;15.52;;;12.55;;
33593;SDS011;19920;52.242;20.940;2023-07-13T02:12:36;18.70;;;13.30;;
33593;SDS011;19920;52.242;20.940;2023-07-13T02:15:02;16.02;;;12.98;;
33593;SDS011;19920;52.242;20.940;2023-07-13T02:17:28;17.92;;;12.82;;
33593;SDS011;19920;52.242;20.940;2023-07-13T02:19:54;15.60;;;13.30;;
33593;SDS011;19920;52.242;20.940;2023-07-13T02:22:20;16.75;;;13.63;;
33593;SDS011;19920;52.242;20.940;2023-07-13T02:24:45;16.10;;;13.35;;
33593;SDS011;19920;52.242;20.940;2023-07-13T02:27:11;16.75;;;13.25;;
33593;SDS011;19920;52.242;20.940;2023-07-13T02:29:37;17.27;;;12.70;;
33593;SDS011;19920;52.242;20.940;2023-07-13T02:32:02;16.35;;;13.38;;
33593;SDS011;19920;52.242;20.940;2023-07-13T02:34:29;20.50;;;14.48;;
33593;SDS011;19920;52.242;20.940;2023-07-13T02:36:55;16.30;;;12.55;;
33593;SDS011;19920;52.242;20.940;2023-07-13T02:39:20;16.58;;;13.48;;
33593;SDS011;19920;52.242;20.940;2023-07-13T02:41:46;17.25;;;12.77;;
33593;SDS011;19920;52.242;20.940;2023-07-13T02:44:12;14.38;;;12.85;;
33593;SDS011;19920;52.242;20.940;2023-07-13T02:46:38;18.17;;;13.82;;
33593;SDS011;19920;52.242;20.940;2023-07-13T02:49:04;15.50;;;12.98;;
33593;SDS011;19920;52.242;20.940;2023-07-13T02:51:30;16.70;;;13.40;;
33593;SDS011;19920;52.242;20.940;2023-07-13T02:53:58;21.00;;;13.25;;
33593;SDS011;19920;52.242;20.940;2023-07-13T02:56:28;17.27;;;13.45;;
33593;SDS011;19920;52.242;20.940;2023-07-13T02:58:56;16.77;;;13.45;;
33593;SDS011;19920;52.242;20.940;2023-07-13T03:01:22;14.85;;;12.93;;
33593;SDS011;19920;52.242;20.940;2023-07-13T03:03:49;17.88;;;13.98;;
33593;SDS011;19920;52.242;20.940;2023-07-13T03:06:15;20.35;;;13.82;;
33593;SDS011;19920;52.242;20.940;2023-07-13T03:08:42;17.42;;;13.80;;
33593;SDS011;19920;52.242;20.940;2023-07-13T03:11:09;18.42;;;13.63;;
33593;SDS011;19920;52.242;20.940;2023-07-13T03:13:38;17.92;;;13.85;;
33593;SDS011;19920;52.242;20.940;2023-07-13T03:16:04;17.65;;;14.38;;
33593;SDS011;19920;52.242;20.940;2023-07-13T03:18:30;15.88;;;13.88;;
33593;SDS011;19920;52.242;20.940;2023-07-13T03:20:56;15.45;;;13.75;;
33593;SDS011;19920;52.242;20.940;2023-07-13T03:23:22;16.45;;;13.00;;
33593;SDS011;19920;52.242;20.940;2023-07-13T03:25:48;15.27;;;12.63;;
33593;SDS011;19920;52.242;20.940;2023-07-13T03:28:14;16.50;;;14.20;;
33593;SDS011;19920;52.242;20.940;2023-07-13T03:30:40;17.17;;;13.70;;
33593;SDS011;19920;52.242;20.940;2023-07-13T03:33:06;17.92;;;14.52;;
33593;SDS011;19920;52.242;20.940;2023-07-13T03:35:34;16.40;;;13.52;;
33593;SDS011;19920;52.242;20.940;2023-07-13T03:38:00;18.52;;;14.27;;
33593;SDS011;19920;52.242;20.940;2023-07-13T03:40:27;18.90;;;15.18;;
33593;SDS011;19920;52.242;20.940;2023-07-13T03:42:53;18.08;;;14.48;;
33593;SDS011;19920;52.242;20.940;2023-07-13T03:45:19;19.10;;;14.82;;
33593;SDS011;19920;52.242;20.940;2023-07-13T03:47:44;16.65;;;13.73;;
33593;SDS011;19920;52.242;20.940;2023-07-13T03:50:10;20.98;;;14.13;;
33593;SDS011;19920;52.242;20.940;2023-07-13T03:52:36;16.88;;;14.05;;
33593;SDS011;19920;52.242;20.940;2023-07-13T03:55:02;15.60;;;13.77;;
33593;SDS011;19920;52.242;20.940;2023-07-13T03:57:28;19.80;;;14.82;;
33593;SDS011;19920;52.242;20.940;2023-07-13T03:59:54;18.42;;;13.90;;
33593;SDS011;19920;52.242;20.940;2023-07-13T04:02:19;18.02;;;14.30;;
33593;SDS011;19920;52.242;20.940;2023-07-13T04:04:45;17.92;;;14.98;;
33593;SDS011;19920;52.242;20.940;2023-07-13T04:07:11;18.70;;;14.55;;
33593;SDS011;19920;52.242;20.940;2023-07-13T04:09:37;17.88;;;13.40;;
33593;SDS011;19920;52.242;20.940;2023-07-13T04:12:03;21.77;;;15.13;;
33593;SDS011;19920;52.242;20.940;2023-07-13T04:14:29;19.33;;;13.70;;
33593;SDS011;19920;52.242;20.940;2023-07-13T04:16:55;16.75;;;14.07;;
33593;SDS011;19920;52.242;20.940;2023-07-13T04:19:20;17.10;;;13.80;;
33593;SDS011;19920;52.242;20.940;2023-07-13T04:21:46;16.85;;;13.40;;
33593;SDS011;19920;52.242;20.940;2023-07-13T04:24:12;19.15;;;13.82;;
33593;SDS011;19920;52.242;20.940;2023-07-13T04:26:38;16.58;;;13.20;;
33593;SDS011;19920;52.242;20.940;2023-07-13T04:29:04;19.77;;;14.90;;
33593;SDS011;19920;52.242;20.940;2023-07-13T04:31:31;16.75;;;13.27;;
33593;SDS011;19920;52.242;20.940;2023-07-13T04:33:57;15.80;;;13.93;;
33593;SDS011;19920;52.242;20.940;2023-07-13T04:36:22;16.38;;;13.07;;
33593;SDS011;19920;52.242;20.940;2023-07-13T04:38:51;19.42;;;13.90;;
33593;SDS011;19920;52.242;20.940;2023-07-13T04:41:18;16.35;;;13.60;;
33593;SDS011;19920;52.242;20.940;2023-07-13T04:43:45;17.27;;;13.60;;
33593;SDS011;19920;52.242;20.940;2023-07-13T04:46:11;19.00;;;14.57;;
33593;SDS011;19920;52.242;20.940;2023-07-13T04:48:38;20.23;;;15.23;;
33593;SDS011;19920;52.242;20.940;2023-07-13T04:51:04;17.63;;;15.63;;
33593;SDS011;19920;52.242;20.940;2023-07-13T04:53:30;18.50;;;15.02;;
33593;SDS011;19920;52.242;20.940;2023-07-13T04:55:59;20.60;;;15.77;;
33593;SDS011;19920;52.242;20.940;2023-07-13T04:58:25;19.58;;;15.65;;
33593;SDS011;19920;52.242;20.940;2023-07-13T05:00:51;17.33;;;15.43;;
33593;SDS011;19920;52.242;20.940;2023-07-13T05:03:17;20.20;;;14.45;;
33593;SDS011;19920;52.242;20.940;2023-07-13T05:05:42;18.88;;;14.50;;
33593;SDS011;19920;52.242;20.940;2023-07-13T05:08:08;18.42;;;14.93;;
33593;SDS011;19920;52.242;20.940;2023-07-13T05:10:34;20.38;;;15.30;;
33593;SDS011;19920;52.242;20.940;2023-07-13T05:13:00;19.02;;;15.27;;
33593;SDS011;19920;52.242;20.940;2023-07-13T05:15:26;21.70;;;16.67;;
33593;SDS011;19920;52.242;20.940;2023-07-13T05:17:52;22.02;;;15.93;;
33593;SDS011;19920;52.242;20.940;2023-07-13T05:20:18;19.33;;;16.20;;
33593;SDS011;19920;52.242;20.940;2023-07-13T05:22:44;20.98;;;16.23;;
33593;SDS011;19920;52.242;20.940;2023-07-13T05:25:12;18.50;;;15.18;;
33593;SDS011;19920;52.242;20.940;2023-07-13T05:27:38;18.90;;;16.70;;
33593;SDS011;19920;52.242;20.940;2023-07-13T05:30:04;19.60;;;16.67;;
33593;SDS011;19920;52.242;20.940;2023-07-13T05:32:30;21.17;;;16.65;;
33593;SDS011;19920;52.242;20.940;2023-07-13T05:34:56;20.33;;;16.85;;
33593;SDS011;19920;52.242;20.940;2023-07-13T05:37:22;22.55;;;16.75;;
33593;SDS011;19920;52.242;20.940;2023-07-13T05:39:47;18.45;;;16.45;;
33593;SDS011;19920;52.242;20.940;2023-07-13T05:42:13;21.02;;;16.02;;
33593;SDS011;19920;52.242;20.940;2023-07-13T05:44:39;17.98;;;15.30;;
33593;SDS011;19920;52.242;20.940;2023-07-13T05:47:04;21.40;;;16.45;;
33593;SDS011;19920;52.242;20.940;2023-07-13T05:49:30;21.70;;;17.08;;
33593;SDS011;19920;52.242;20.940;2023-07-13T05:51:56;18.52;;;16.30;;
33593;SDS011;19920;52.242;20.940;2023-07-13T05:54:22;20.40;;;16.42;;
33593;SDS011;19920;52.242;20.940;2023-07-13T05:56:48;20.55;;;16.02;;
33593;SDS011;19920;52.242;20.940;2023-07-13T05:59:13;19.95;;;16.02;;
33593;SDS011;19920;52.242;20.940;2023-07-13T06:01:39;18.42;;;15.55;;
33593;SDS011;19920;52.242;20.940;2023-07-13T06:04:05;21.00;;;15.43;;
33593;SDS011;19920;52.242;20.940;2023-07-13T06:06:31;22.20;;;15.25;;
33593;SDS011;19920;52.242;20.940;2023-07-13T06:08:57;19.30;;;16.20;;
33593;SDS011;19920;52.242;20.940;2023-07-13T06:11:23;21.17;;;15.05;;
33593;SDS011;19920;52.242;20.940;2023-07-13T06:13:50;22.08;;;15.00;;
33593;SDS011;19920;52.242;20.940;2023-07-13T06:16:16;19.75;;;15.45;;
33593;SDS011;19920;52.242;20.940;2023-07-13T06:18:42;20.77;;;15.50;;
33593;SDS011;19920;52.242;20.940;2023-07-13T06:21:09;18.95;;;14.63;;
33593;SDS011;19920;52.242;20.940;2023-07-13T06:23:39;22.55;;;15.38;;
33593;SDS011;19920;52.242;20.940;2023-07-13T06:26:05;20.98;;;16.08;;
33593;SDS011;19920;52.242;20.940;2023-07-13T06:28:31;21.05;;;15.63;;
33593;SDS011;19920;52.242;20.940;2023-07-13T06:30:58;24.45;;;16.33;;
33593;SDS011;19920;52.242;20.940;2023-07-13T06:33:24;18.17;;;14.07;;
33593;SDS011;19920;52.242;20.940;2023-07-13T06:35:50;21.52;;;14.80;;
33593;SDS011;19920;52.242;20.940;2023-07-13T06:38:15;16.17;;;13.73;;
33593;SDS011;19920;52.242;20.940;2023-07-13T06:40:41;19.58;;;14.88;;
33593;SDS011;19920;52.242;20.940;2023-07-13T06:43:07;18.08;;;14.32;;
33593;SDS011;19920;52.242;20.940;2023-07-13T06:45:35;22.52;;;13.80;;
33593;SDS011;19920;52.242;20.940;2023-07-13T06:48:06;10.98;;;8.95;;
33593;SDS011;19920;52.242;20.940;2023-07-13T06:50:32;8.60;;;5.65;;
33593;SDS011;19920;52.242;20.940;2023-07-13T06:52:58;5.63;;;4.75;;
33593;SDS011;19920;52.242;20.940;2023-07-13T06:55:24;6.63;;;4.05;;
33593;SDS011;19920;52.242;20.940;2023-07-13T06:57:51;5.50;;;3.83;;
33593;SDS011;19920;52.242;20.940;2023-07-13T07:00:16;6.05;;;4.07;;
33593;SDS011;19920;52.242;20.940;2023-07-13T07:02:42;6.10;;;4.60;;
33593;SDS011;19920;52.242;20.940;2023-07-13T07:05:08;7.20;;;5.18;;
33593;SDS011;19920;52.242;20.940;2023-07-13T07:07:34;6.78;;;4.63;;
33593;SDS011;19920;52.242;20.940;2023-07-13T07:10:02;6.78;;;4.53;;
33593;SDS011;19920;52.242;20.940;2023-07-13T07:12:29;8.18;;;4.28;;
33593;SDS011;19920;52.242;20.940;2023-07-13T07:14:54;5.03;;;4.53;;
33593;SDS011;19920;52.242;20.940;2023-07-13T07:17:20;6.57;;;4.70;;
33593;SDS011;19920;52.242;20.940;2023-07-13T07:19:46;7.85;;;4.38;;
33593;SDS011;19920;52.242;20.940;2023-07-13T07:22:11;6.32;;;4.10;;
33593;SDS011;19920;52.242;20.940;2023-07-13T07:24:37;7.18;;;4.15;;
33593;SDS011;19920;52.242;20.940;2023-07-13T07:27:03;4.50;;;4.00;;
33593;SDS011;19920;52.242;20.940;2023-07-13T07:29:29;6.30;;;4.00;;
33593;SDS011;19920;52.242;20.940;2023-07-13T07:31:54;5.82;;;3.58;;
33593;SDS011;19920;52.242;20.940;2023-07-13T07:34:20;5.30;;;3.70;;
33593;SDS011;19920;52.242;20.940;2023-07-13T07:36:45;4.53;;;3.50;;
33593;SDS011;19920;52.242;20.940;2023-07-13T07:39:11;6.65;;;4.05;;
33593;SDS011;19920;52.242;20.940;2023-07-13T07:41:37;6.00;;;4.78;;
33593;SDS011;19920;52.242;20.940;2023-07-13T07:44:03;7.35;;;4.70;;
33593;SDS011;19920;52.242;20.940;2023-07-13T07:46:29;5.55;;;4.28;;
33593;SDS011;19920;52.242;20.940;2023-07-13T07:48:55;8.70;;;4.88;;
33593;SDS011;19920;52.242;20.940;2023-07-13T07:51:21;6.25;;;4.28;;
33593;SDS011;19920;52.242;20.940;2023-07-13T07:53:47;5.90;;;4.20;;
33593;SDS011;19920;52.242;20.940;2023-07-13T07:56:13;4.35;;;3.95;;
33593;SDS011;19920;52.242;20.940;2023-07-13T07:58:41;5.75;;;4.15;;
33593;SDS011;19920;52.242;20.940;2023-07-13T08:01:07;5.65;;;4.47;;
33593;SDS011;19920;52.242;20.940;2023-07-13T08:03:33;4.90;;;4.20;;
33593;SDS011;19920;52.242;20.940;2023-07-13T08:05:59;6.50;;;4.57;;
33593;SDS011;19920;52.242;20.940;2023-07-13T08:08:25;4.78;;;4.00;;
33593;SDS011;19920;52.242;20.940;2023-07-13T08:10:51;4.85;;;4.22;;
33593;SDS011;19920;52.242;20.940;2023-07-13T08:13:16;6.13;;;4.07;;
33593;SDS011;19920;52.242;20.940;2023-07-13T08:15:42;5.20;;;3.83;;
33593;SDS011;19920;52.242;20.940;2023-07-13T08:18:08;4.57;;;3.78;;
33593;SDS011;19920;52.242;20.940;2023-07-13T08:20:36;5.07;;;3.97;;
33593;SDS011;19920;52.242;20.940;2023-07-13T08:23:05;5.00;;;3.78;;
33593;SDS011;19920;52.242;20.940;2023-07-13T08:25:31;5.45;;;3.53;;
33593;SDS011;19920;52.242;20.940;2023-07-13T08:27:57;5.38;;;3.92;;
33593;SDS011;19920;52.242;20.940;2023-07-13T08:30:22;5.45;;;3.90;;
33593;SDS011;19920;52.242;20.940;2023-07-13T08:32:48;8.63;;;4.40;;
33593;SDS011;19920;52.242;20.940;2023-07-13T08:35:14;5.50;;;4.65;;
33593;SDS011;19920;52.242;20.940;2023-07-13T08:37:40;6.70;;;4.40;;
33593;SDS011;19920;52.242;20.940;2023-07-13T08:40:07;6.45;;;4.70;;
33593;SDS011;19920;52.242;20.940;2023-07-13T08:45:35;7.75;;;4.28;;
33593;SDS011;19920;52.242;20.940;2023-07-13T08:48:12;9.02;;;5.22;;
33593;SDS011;19920;52.242;20.940;2023-07-13T08:53:21;6.82;;;5.65;;
33593;SDS011;19920;52.242;20.940;2023-07-13T08:55:50;8.35;;;5.72;;
33593;SDS011;19920;52.242;20.940;2023-07-13T08:58:24;7.07;;;5.60;;
33593;SDS011;19920;52.242;20.940;2023-07-13T09:03:56;7.15;;;5.80;;
33593;SDS011;19920;52.242;20.940;2023-07-13T09:06:39;7.13;;;5.72;;
33593;SDS011;19920;52.242;20.940;2023-07-13T09:14:44;5.93;;;5.22;;
33593;SDS011;19920;52.242;20.940;2023-07-13T09:17:18;5.90;;;5.40;;
33593;SDS011;19920;52.242;20.940;2023-07-13T09:19:50;7.97;;;5.63;;
33593;SDS011;19920;52.242;20.940;2023-07-13T09:22:25;9.45;;;5.97;;
33593;SDS011;19920;52.242;20.940;2023-07-13T09:25:05;6.95;;;5.63;;
33593;SDS011;19920;52.242;20.940;2023-07-13T09:27:45;6.47;;;5.63;;
33593;SDS011;19920;52.242;20.940;2023-07-13T09:32:42;6.30;;;5.17;;
33593;SDS011;19920;52.242;20.940;2023-07-13T09:35:15;9.73;;;4.80;;
33593;SDS011;19920;52.242;20.940;2023-07-13T09:37:44;5.45;;;4.43;;
33593;SDS011;19920;52.242;20.940;2023-07-13T09:40:13;9.32;;;4.90;;
33593;SDS011;19920;52.242;20.940;2023-07-13T09:42:50;6.45;;;4.05;;
33593;SDS011;19920;52.242;20.940;2023-07-13T09:45:26;8.18;;;4.10;;
33593;SDS011;19920;52.242;20.940;2023-07-13T09:47:58;7.78;;;4.07;;
33593;SDS011;19920;52.242;20.940;2023-07-13T09:50:32;4.22;;;3.60;;
33593;SDS011;19920;52.242;20.940;2023-07-13T09:52:58;6.22;;;3.85;;
33593;SDS011;19920;52.242;20.940;2023-07-13T09:55:30;5.68;;;4.20;;
33593;SDS011;19920;52.242;20.940;2023-07-13T09:58:03;4.93;;;3.63;;
33593;SDS011;19920;52.242;20.940;2023-07-13T10:00:59;7.47;;;3.97;;
33593;SDS011;19920;52.242;20.940;2023-07-13T10:03:30;4.07;;;3.70;;
33593;SDS011;19920;52.242;20.940;2023-07-13T10:06:15;5.82;;;3.60;;
33593;SDS011;19920;52.242;20.940;2023-07-13T10:08:44;6.25;;;3.60;;
33593;SDS011;19920;52.242;20.940;2023-07-13T10:11:13;8.13;;;3.38;;
33593;SDS011;19920;52.242;20.940;2023-07-13T10:13:42;5.85;;;3.80;;
33593;SDS011;19920;52.242;20.940;2023-07-13T10:16:25;7.47;;;3.95;;
33593;SDS011;19920;52.242;20.940;2023-07-13T10:18:58;7.93;;;4.00;;
33593;SDS011;19920;52.242;20.940;2023-07-13T10:21:28;4.65;;;4.20;;
33593;SDS011;19920;52.242;20.940;2023-07-13T10:24:42;6.28;;;4.30;;
33593;SDS011;19920;52.242;20.940;2023-07-13T10:29:38;5.65;;;4.28;;
33593;SDS011;19920;52.242;20.940;2023-07-13T10:32:09;5.20;;;4.70;;
33593;SDS011;19920;52.242;20.940;2023-07-13T10:34:36;10.43;;;5.13;;
33593;SDS011;19920;52.242;20.940;2023-07-13T10:37:02;9.02;;;4.50;;
33593;SDS011;19920;52.242;20.940;2023-07-13T10:39:30;8.35;;;5.18;;
33593;SDS011;19920;52.242;20.940;2023-07-13T10:41:58;8.07;;;5.05;;
33593;SDS011;19920;52.242;20.940;2023-07-13T10:44:30;15.55;;;6.80;;
33593;SDS011;19920;52.242;20.940;2023-07-13T10:46:58;10.07;;;5.78;;
33593;SDS011;19920;52.242;20.940;2023-07-13T10:49:27;12.00;;;6.20;;
33593;SDS011;19920;52.242;20.940;2023-07-13T10:51:55;10.43;;;5.68;;
33593;SDS011;19920;52.242;20.940;2023-07-13T10:54:26;14.60;;;6.43;;
33593;SDS011;19920;52.242;20.940;2023-07-13T10:57:08;10.82;;;5.95;;
33593;SDS011;19920;52.242;20.940;2023-07-13T10:59:46;13.85;;;6.45;;
33593;SDS011;19920;52.242;20.940;2023-07-13T11:02:35;10.23;;;5.50;;
33593;SDS011;19920;52.242;20.940;2023-07-13T11:05:01;12.20;;;7.18;;
33593;SDS011;19920;52.242;20.940;2023-07-13T11:08:02;11.23;;;6.22;;
33593;SDS011;19920;52.242;20.940;2023-07-13T11:10:54;11.38;;;6.78;;
33593;SDS011;19920;52.242;20.940;2023-07-13T11:14:25;10.20;;;6.80;;
33593;SDS011;19920;52.242;20.940;2023-07-13T11:18:48;9.20;;;6.20;;
33593;SDS011;19920;52.242;20.940;2023-07-13T11:21:22;9.38;;;6.43;;
33593;SDS011;19920;52.242;20.940;2023-07-13T11:23:52;8.75;;;5.68;;
33593;SDS011;19920;52.242;20.940;2023-07-13T11:29:08;8.55;;;5.78;;
33593;SDS011;19920;52.242;20.940;2023-07-13T11:31:40;9.75;;;7.72;;
33593;SDS011;19920;52.242;20.940;2023-07-13T11:34:12;9.82;;;7.07;;
33593;SDS011;19920;52.242;20.940;2023-07-13T11:36:42;7.70;;;5.80;;
33593;SDS011;19920;52.242;20.940;2023-07-13T11:41:56;8.18;;;5.72;;
33593;SDS011;19920;52.242;20.940;2023-07-13T11:44:25;7.10;;;5.03;;
33593;SDS011;19920;52.242;20.940;2023-07-13T11:46:59;6.95;;;3.85;;
33593;SDS011;19920;52.242;20.940;2023-07-13T11:49:29;5.65;;;4.22;;
33593;SDS011;19920;52.242;20.940;2023-07-13T11:51:57;8.52;;;5.60;;
33593;SDS011;19920;52.242;20.940;2023-07-13T11:54:25;9.20;;;4.90;;
33593;SDS011;19920;52.242;20.940;2023-07-13T11:57:03;8.27;;;5.20;;
33593;SDS011;19920;52.242;20.940;2023-07-13T11:59:43;7.63;;;5.22;;
33593;SDS011;19920;52.242;20.940;2023-07-13T12:02:14;7.30;;;5.00;;
33593;SDS011;19920;52.242;20.940;2023-07-13T12:04:49;9.57;;;5.50;;
33593;SDS011;19920;52.242;20.940;2023-07-13T12:07:17;10.30;;;5.93;;
33593;SDS011;19920;52.242;20.940;2023-07-13T12:09:44;8.77;;;6.10;;
33593;SDS011;19920;52.242;20.940;2023-07-13T12:12:13;9.05;;;5.65;;
33593;SDS011;19920;52.242;20.940;2023-07-13T12:14:41;8.32;;;4.97;;
33593;SDS011;19920;52.242;20.940;2023-07-13T12:17:11;6.25;;;5.20;;
33593;SDS011;19920;52.242;20.940;2023-07-13T12:19:43;8.68;;;6.00;;
33593;SDS011;19920;52.242;20.940;2023-07-13T12:22:09;8.60;;;5.47;;
33593;SDS011;19920;52.242;20.940;2023-07-13T12:24:38;9.90;;;6.00;;
33593;SDS011;19920;52.242;20.940;2023-07-13T12:27:05;12.05;;;6.15;;
33593;SDS011;19920;52.242;20.940;2023-07-13T12:29:32;9.90;;;6.63;;
33593;SDS011;19920;52.242;20.940;2023-07-13T12:31:58;7.70;;;5.93;;
33593;SDS011;19920;52.242;20.940;2023-07-13T12:34:25;8.75;;;6.70;;
33593;SDS011;19920;52.242;20.940;2023-07-13T12:36:52;9.43;;;6.43;;
33593;SDS011;19920;52.242;20.940;2023-07-13T12:39:21;10.13;;;6.45;;
33593;SDS011;19920;52.242;20.940;2023-07-13T12:41:49;8.75;;;6.70;;
33593;SDS011;19920;52.242;20.940;2023-07-13T12:44:17;12.85;;;6.68;;
33593;SDS011;19920;52.242;20.940;2023-07-13T12:46:52;10.27;;;6.93;;
33593;SDS011;19920;52.242;20.940;2023-07-13T12:49:30;9.20;;;6.15;;
33593;SDS011;19920;52.242;20.940;2023-07-13T12:54:29;9.75;;;6.40;;
33593;SDS011;19920;52.242;20.940;2023-07-13T12:56:55;10.15;;;7.07;;
33593;SDS011;19920;52.242;20.940;2023-07-13T12:59:23;10.52;;;6.72;;
33593;SDS011;19920;52.242;20.940;2023-07-13T13:01:54;11.43;;;6.90;;
33593;SDS011;19920;52.242;20.940;2023-07-13T13:04:19;9.18;;;6.88;;
33593;SDS011;19920;52.242;20.940;2023-07-13T13:06:46;9.45;;;6.93;;
33593;SDS011;19920;52.242;20.940;2023-07-13T13:09:13;7.93;;;6.40;;
33593;SDS011;19920;52.242;20.940;2023-07-13T13:11:40;8.30;;;5.80;;
33593;SDS011;19920;52.242;20.940;2023-07-13T13:14:06;10.23;;;5.88;;
33593;SDS011;19920;52.242;20.940;2023-07-13T13:16:37;9.32;;;8.00;;
33593;SDS011;19920;52.242;20.940;2023-07-13T13:21:45;8.35;;;6.10;;
33593;SDS011;19920;52.242;20.940;2023-07-13T13:24:15;9.13;;;6.13;;
33593;SDS011;19920;52.242;20.940;2023-07-13T13:26:42;7.00;;;5.85;;
33593;SDS011;19920;52.242;20.940;2023-07-13T13:29:19;8.75;;;6.70;;
33593;SDS011;19920;52.242;20.940;2023-07-13T13:31:46;9.77;;;6.13;;
33593;SDS011;19920;52.242;20.940;2023-07-13T13:34:15;10.73;;;6.65;;
33593;SDS011;19920;52.242;20.940;2023-07-13T13:39:23;8.80;;;7.18;;
33593;SDS011;19920;52.242;20.940;2023-07-13T13:41:52;10.00;;;7.85;;
33593;SDS011;19920;52.242;20.940;2023-07-13T13:44:19;11.27;;;7.93;;
33593;SDS011;19920;52.242;20.940;2023-07-13T13:46:46;12.02;;;7.88;;
33593;SDS011;19920;52.242;20.940;2023-07-13T13:49:24;11.80;;;6.57;;
33593;SDS011;19920;52.242;20.940;2023-07-13T13:51:54;11.43;;;6.53;;
33593;SDS011;19920;52.242;20.940;2023-07-13T13:54:21;9.93;;;6.65;;
33593;SDS011;19920;52.242;20.940;2023-07-13T13:56:48;10.70;;;6.30;;
33593;SDS011;19920;52.242;20.940;2023-07-13T13:59:15;8.82;;;6.97;;
33593;SDS011;19920;52.242;20.940;2023-07-13T14:01:42;9.88;;;7.32;;
33593;SDS011;19920;52.242;20.940;2023-07-13T14:04:27;10.27;;;7.68;;
33593;SDS011;19920;52.242;20.940;2023-07-13T14:06:53;9.95;;;8.02;;
33593;SDS011;19920;52.242;20.940;2023-07-13T14:09:19;10.13;;;6.95;;
33593;SDS011;19920;52.242;20.940;2023-07-13T14:11:45;11.15;;;7.28;;
33593;SDS011;19920;52.242;20.940;2023-07-13T14:14:17;10.18;;;6.80;;
33593;SDS011;19920;52.242;20.940;2023-07-13T14:16:45;8.80;;;7.07;;
33593;SDS011;19920;52.242;20.940;2023-07-13T14:19:17;10.55;;;8.02;;
33593;SDS011;19920;52.242;20.940;2023-07-13T14:21:44;12.95;;;8.43;;
33593;SDS011;19920;52.242;20.940;2023-07-13T14:24:09;9.65;;;7.85;;
33593;SDS011;19920;52.242;20.940;2023-07-13T14:26:36;10.60;;;8.15;;
33593;SDS011;19920;52.242;20.940;2023-07-13T14:29:05;11.18;;;8.73;;
33593;SDS011;19920;52.242;20.940;2023-07-13T14:31:38;12.13;;;8.98;;
33593;SDS011;19920;52.242;20.940;2023-07-13T14:34:03;12.13;;;8.73;;
33593;SDS011;19920;52.242;20.940;2023-07-13T14:36:37;13.77;;;9.35;;
33593;SDS011;19920;52.242;20.940;2023-07-13T14:39:19;14.93;;;10.32;;
33593;SDS011;19920;52.242;20.940;2023-07-13T14:41:49;13.57;;;10.00;;
33593;SDS011;19920;52.242;20.940;2023-07-13T14:44:17;15.90;;;10.25;;
33593;SDS011;19920;52.242;20.940;2023-07-13T14:46:45;13.55;;;10.43;;
33593;SDS011;19920;52.242;20.940;2023-07-13T14:51:58;13.50;;;11.55;;
33593;SDS011;19920;52.242;20.940;2023-07-13T14:54:25;14.90;;;11.70;;
33593;SDS011;19920;52.242;20.940;2023-07-13T14:56:51;13.60;;;11.40;;
33593;SDS011;19920;52.242;20.940;2023-07-13T14:59:17;13.93;;;11.52;;
33593;SDS011;19920;52.242;20.940;2023-07-13T15:01:46;15.82;;;12.82;;
33593;SDS011;19920;52.242;20.940;2023-07-13T15:04:13;18.10;;;12.73;;
33593;SDS011;19920;52.242;20.940;2023-07-13T15:06:55;16.65;;;11.93;;